sensor_id;sensor_type;location;lat;lon;timestamp;temperature;humidity
37478;DHT22;23334;54.316;10.182;2022-09-19T00:01:27;9.60;99.90
37478;DHT22;23334;54.316;10.182;2022-09-19T00:03:56;9.60;99.90
37478;DHT22;23334;54.316;10.182;2022-09-19T00:06:22;9.50;99.90
37478;DHT22;23334;54.316;10.182;2022-09-19T00:08:49;9.50;99.90
37478;DHT22;23334;54.316;10.182;2022-09-19T00:11:17;9.60;99.90
37478;DHT22;23334;54.316;10.182;2022-09-19T00:16:19;9.40;99.90
37478;DHT22;23334;54.316;10.182;2022-09-19T00:18:46;9.40;99.90
37478;DHT22;23334;54.316;10.182;2022-09-19T00:21:19;9.40;99.90
37478;DHT22;23334;54.316;10.182;2022-09-19T00:23:45;9.30;99.90
37478;DHT22;23334;54.316;10.182;2022-09-19T00:26:29;9.30;99.90
37478;DHT22;23334;54.316;10.182;2022-09-19T00:28:54;9.30;99.90
37478;DHT22;23334;54.316;10.182;2022-09-19T00:31:20;9.30;99.90
37478;DHT22;23334;54.316;10.182;2022-09-19T00:33:47;9.30;99.90
37478;DHT22;23334;54.316;10.182;2022-09-19T00:36:13;9.30;99.90
37478;DHT22;23334;54.316;10.182;2022-09-19T00:41:06;9.40;99.90
37478;DHT22;23334;54.316;10.182;2022-09-19T00:43:59;9.40;99.90
37478;DHT22;23334;54.316;10.182;2022-09-19T00:46:28;9.40;99.90
37478;DHT22;23334;54.316;10.182;2022-09-19T00:48:58;9.40;99.90
37478;DHT22;23334;54.316;10.182;2022-09-19T00:51:29;9.40;99.90
37478;DHT22;23334;54.316;10.182;2022-09-19T00:54:01;9.40;99.90
37478;DHT22;23334;54.316;10.182;2022-09-19T00:56:28;9.40;99.90
37478;DHT22;23334;54.316;10.182;2022-09-19T00:58:55;9.30;99.90
37478;DHT22;23334;54.316;10.182;2022-09-19T01:01:22;9.30;99.90
37478;DHT22;23334;54.316;10.182;2022-09-19T01:03:47;9.30;99.90
37478;DHT22;23334;54.316;10.182;2022-09-19T01:06:37;9.30;99.90
37478;DHT22;23334;54.316;10.182;2022-09-19T01:14:45;9.20;99.90
37478;DHT22;23334;54.316;10.182;2022-09-19T01:17:24;9.20;99.90
37478;DHT22;23334;54.316;10.182;2022-09-19T01:23:05;9.10;99.90
37478;DHT22;23334;54.316;10.182;2022-09-19T01:28:43;9.10;99.90
37478;DHT22;23334;54.316;10.182;2022-09-19T01:33:49;9.10;99.90
37478;DHT22;23334;54.316;10.182;2022-09-19T01:36:18;9.10;99.90
37478;DHT22;23334;54.316;10.182;2022-09-19T01:38:47;9.00;99.90
37478;DHT22;23334;54.316;10.182;2022-09-19T01:41:15;9.00;99.90
37478;DHT22;23334;54.316;10.182;2022-09-19T01:43:41;9.00;99.90
37478;DHT22;23334;54.316;10.182;2022-09-19T01:46:16;9.00;99.90
37478;DHT22;23334;54.316;10.182;2022-09-19T01:48:46;9.00;99.90
37478;DHT22;23334;54.316;10.182;2022-09-19T01:51:37;9.00;99.90
37478;DHT22;23334;54.316;10.182;2022-09-19T01:59:41;9.00;99.90
37478;DHT22;23334;54.316;10.182;2022-09-19T02:05:08;9.00;99.90
37478;DHT22;23334;54.316;10.182;2022-09-19T02:07:49;9.00;99.90
37478;DHT22;23334;54.316;10.182;2022-09-19T02:10:25;9.00;99.90
37478;DHT22;23334;54.316;10.182;2022-09-19T02:12:53;8.90;99.90
37478;DHT22;23334;54.316;10.182;2022-09-19T02:15:23;9.00;99.90
37478;DHT22;23334;54.316;10.182;2022-09-19T02:17:56;9.00;99.90
37478;DHT22;23334;54.316;10.182;2022-09-19T02:20:34;9.00;99.90
37478;DHT22;23334;54.316;10.182;2022-09-19T02:23:06;9.00;99.90
37478;DHT22;23334;54.316;10.182;2022-09-19T02:25:34;8.90;99.90
37478;DHT22;23334;54.316;10.182;2022-09-19T02:28:06;8.90;99.90
37478;DHT22;23334;54.316;10.182;2022-09-19T02:30:33;8.90;99.90
37478;DHT22;23334;54.316;10.182;2022-09-19T02:32:59;8.90;99.90
37478;DHT22;23334;54.316;10.182;2022-09-19T02:38:21;8.90;99.90
37478;DHT22;23334;54.316;10.182;2022-09-19T02:41:01;8.90;99.90
37478;DHT22;23334;54.316;10.182;2022-09-19T02:43:44;8.90;99.90
37478;DHT22;23334;54.316;10.182;2022-09-19T02:46:19;8.80;99.90
37478;DHT22;23334;54.316;10.182;2022-09-19T02:48:53;8.90;99.90
37478;DHT22;23334;54.316;10.182;2022-09-19T02:51:28;8.70;99.90
37478;DHT22;23334;54.316;10.182;2022-09-19T02:53:59;8.80;99.90
37478;DHT22;23334;54.316;10.182;2022-09-19T02:56:29;8.70;99.90
37478;DHT22;23334;54.316;10.182;2022-09-19T02:59:14;8.70;99.90
37478;DHT22;23334;54.316;10.182;2022-09-19T03:01:44;8.60;99.90
37478;DHT22;23334;54.316;10.182;2022-09-19T03:04:15;8.70;99.90
37478;DHT22;23334;54.316;10.182;2022-09-19T03:09:28;8.60;99.90
37478;DHT22;23334;54.316;10.182;2022-09-19T03:12:17;8.50;99.90
37478;DHT22;23334;54.316;10.182;2022-09-19T03:14:45;8.60;99.90
37478;DHT22;23334;54.316;10.182;2022-09-19T03:17:13;8.50;99.90
37478;DHT22;23334;54.316;10.182;2022-09-19T03:19:45;8.70;99.90
37478;DHT22;23334;54.316;10.182;2022-09-19T03:22:11;8.70;99.90
37478;DHT22;23334;54.316;10.182;2022-09-19T03:24:36;8.80;99.90
37478;DHT22;23334;54.316;10.182;2022-09-19T03:27:04;8.80;99.90
37478;DHT22;23334;54.316;10.182;2022-09-19T03:29:30;8.90;99.90
37478;DHT22;23334;54.316;10.182;2022-09-19T03:34:22;9.00;99.90
37478;DHT22;23334;54.316;10.182;2022-09-19T03:39:14;9.10;99.90
37478;DHT22;23334;54.316;10.182;2022-09-19T03:41:40;9.00;99.90
37478;DHT22;23334;54.316;10.182;2022-09-19T03:44:05;9.10;99.90
37478;DHT22;23334;54.316;10.182;2022-09-19T03:46:31;9.00;99.90
37478;DHT22;23334;54.316;10.182;2022-09-19T03:48:58;9.00;99.90
37478;DHT22;23334;54.316;10.182;2022-09-19T03:56:17;8.90;99.90
37478;DHT22;23334;54.316;10.182;2022-09-19T03:58:43;8.80;99.90
37478;DHT22;23334;54.316;10.182;2022-09-19T04:01:10;8.80;99.90
37478;DHT22;23334;54.316;10.182;2022-09-19T04:03:38;8.70;99.90
37478;DHT22;23334;54.316;10.182;2022-09-19T04:06:04;8.70;99.90
37478;DHT22;23334;54.316;10.182;2022-09-19T04:08:31;8.50;99.90
37478;DHT22;23334;54.316;10.182;2022-09-19T04:10:57;8.60;99.90
37478;DHT22;23334;54.316;10.182;2022-09-19T04:13:24;8.50;99.90
37478;DHT22;23334;54.316;10.182;2022-09-19T04:15:50;8.50;99.90
37478;DHT22;23334;54.316;10.182;2022-09-19T04:18:17;8.40;99.90
37478;DHT22;23334;54.316;10.182;2022-09-19T04:20:44;8.40;99.90
37478;DHT22;23334;54.316;10.182;2022-09-19T04:23:10;8.40;99.90
37478;DHT22;23334;54.316;10.182;2022-09-19T04:25:37;8.40;99.90
37478;DHT22;23334;54.316;10.182;2022-09-19T04:28:05;8.30;99.90
37478;DHT22;23334;54.316;10.182;2022-09-19T04:30:33;8.30;99.90
37478;DHT22;23334;54.316;10.182;2022-09-19T04:33:01;8.30;99.90
37478;DHT22;23334;54.316;10.182;2022-09-19T04:35:29;8.30;99.90
37478;DHT22;23334;54.316;10.182;2022-09-19T04:37:54;8.30;99.90
37478;DHT22;23334;54.316;10.182;2022-09-19T04:40:20;8.30;99.90
37478;DHT22;23334;54.316;10.182;2022-09-19T04:42:47;8.30;99.90
37478;DHT22;23334;54.316;10.182;2022-09-19T04:45:13;8.30;99.90
37478;DHT22;23334;54.316;10.182;2022-09-19T04:47:47;8.30;99.90
37478;DHT22;23334;54.316;10.182;2022-09-19T04:50:13;8.30;99.90
37478;DHT22;23334;54.316;10.182;2022-09-19T04:52:39;8.30;99.90
37478;DHT22;23334;54.316;10.182;2022-09-19T04:55:07;8.30;99.90
37478;DHT22;23334;54.316;10.182;2022-09-19T04:57:33;8.30;99.90
37478;DHT22;23334;54.316;10.182;2022-09-19T04:59:58;8.30;99.90
37478;DHT22;23334;54.316;10.182;2022-09-19T05:02:24;8.20;99.90
37478;DHT22;23334;54.316;10.182;2022-09-19T05:04:49;8.30;99.90
37478;DHT22;23334;54.316;10.182;2022-09-19T05:07:16;8.30;99.90
37478;DHT22;23334;54.316;10.182;2022-09-19T05:09:44;8.30;99.90
37478;DHT22;23334;54.316;10.182;2022-09-19T05:12:11;8.20;99.90
37478;DHT22;23334;54.316;10.182;2022-09-19T05:14:36;8.20;99.90
37478;DHT22;23334;54.316;10.182;2022-09-19T05:17:03;8.20;99.90
37478;DHT22;23334;54.316;10.182;2022-09-19T05:19:28;8.20;99.90
37478;DHT22;23334;54.316;10.182;2022-09-19T05:21:54;8.20;99.90
37478;DHT22;23334;54.316;10.182;2022-09-19T05:24:19;8.20;99.90
37478;DHT22;23334;54.316;10.182;2022-09-19T05:26:46;8.30;99.90
37478;DHT22;23334;54.316;10.182;2022-09-19T05:29:12;8.40;99.90
37478;DHT22;23334;54.316;10.182;2022-09-19T05:31:39;8.40;99.90
37478;DHT22;23334;54.316;10.182;2022-09-19T05:34:05;8.50;99.90
37478;DHT22;23334;54.316;10.182;2022-09-19T05:36:30;8.60;99.90
37478;DHT22;23334;54.316;10.182;2022-09-19T05:38:56;8.60;99.90
37478;DHT22;23334;54.316;10.182;2022-09-19T05:41:23;12.20;99.90
37478;DHT22;23334;54.316;10.182;2022-09-19T05:43:49;8.60;99.90
37478;DHT22;23334;54.316;10.182;2022-09-19T05:46:15;8.70;99.90
37478;DHT22;23334;54.316;10.182;2022-09-19T05:48:41;8.80;99.90
37478;DHT22;23334;54.316;10.182;2022-09-19T05:51:06;8.80;99.90
37478;DHT22;23334;54.316;10.182;2022-09-19T05:53:32;8.80;99.90
37478;DHT22;23334;54.316;10.182;2022-09-19T05:56:16;8.90;99.90
37478;DHT22;23334;54.316;10.182;2022-09-19T05:58:42;9.00;99.90
37478;DHT22;23334;54.316;10.182;2022-09-19T06:01:09;9.00;99.90
37478;DHT22;23334;54.316;10.182;2022-09-19T06:03:35;9.10;99.90
37478;DHT22;23334;54.316;10.182;2022-09-19T06:06:06;9.20;99.90
37478;DHT22;23334;54.316;10.182;2022-09-19T06:08:34;9.30;99.90
37478;DHT22;23334;54.316;10.182;2022-09-19T06:11:00;9.30;99.90
37478;DHT22;23334;54.316;10.182;2022-09-19T06:13:26;9.30;99.90
37478;DHT22;23334;54.316;10.182;2022-09-19T06:16:11;9.50;99.90
37478;DHT22;23334;54.316;10.182;2022-09-19T06:18:37;9.80;99.90
37478;DHT22;23334;54.316;10.182;2022-09-19T06:21:02;9.80;99.90
37478;DHT22;23334;54.316;10.182;2022-09-19T06:25:54;10.40;99.90
37478;DHT22;23334;54.316;10.182;2022-09-19T06:28:19;10.80;99.90
37478;DHT22;23334;54.316;10.182;2022-09-19T06:30:45;7.10;99.90
37478;DHT22;23334;54.316;10.182;2022-09-19T06:33:10;11.00;99.90
37478;DHT22;23334;54.316;10.182;2022-09-19T06:35:35;11.20;99.90
37478;DHT22;23334;54.316;10.182;2022-09-19T06:38:03;11.40;99.90
37478;DHT22;23334;54.316;10.182;2022-09-19T06:40:30;11.40;99.90
37478;DHT22;23334;54.316;10.182;2022-09-19T06:43:00;11.70;99.90
37478;DHT22;23334;54.316;10.182;2022-09-19T06:45:31;11.90;99.90
37478;DHT22;23334;54.316;10.182;2022-09-19T06:47:58;12.50;99.90
37478;DHT22;23334;54.316;10.182;2022-09-19T06:50:25;12.50;99.90
37478;DHT22;23334;54.316;10.182;2022-09-19T06:52:51;13.10;99.90
37478;DHT22;23334;54.316;10.182;2022-09-19T07:02:35;15.40;99.90
37478;DHT22;23334;54.316;10.182;2022-09-19T07:12:18;16.30;99.90
37478;DHT22;23334;54.316;10.182;2022-09-19T07:14:43;16.80;99.90
37478;DHT22;23334;54.316;10.182;2022-09-19T07:19:41;18.80;99.90
37478;DHT22;23334;54.316;10.182;2022-09-19T07:26:58;21.40;99.90
37478;DHT22;23334;54.316;10.182;2022-09-19T07:29:24;20.70;99.90
37478;DHT22;23334;54.316;10.182;2022-09-19T12:00:18;19.60;74.80
37478;DHT22;23334;54.316;10.182;2022-09-19T12:02:55;19.10;76.60
37478;DHT22;23334;54.316;10.182;2022-09-19T12:08:22;19.40;77.90
37478;DHT22;23334;54.316;10.182;2022-09-19T12:11:00;19.30;77.30
37478;DHT22;23334;54.316;10.182;2022-09-19T12:16:10;19.00;79.20
37478;DHT22;23334;54.316;10.182;2022-09-19T12:18:54;18.90;80.30
37478;DHT22;23334;54.316;10.182;2022-09-19T12:21:24;18.90;80.90
37478;DHT22;23334;54.316;10.182;2022-09-19T12:23:56;18.90;81.10
37478;DHT22;23334;54.316;10.182;2022-09-19T12:26:58;18.90;80.90
37478;DHT22;23334;54.316;10.182;2022-09-19T12:29:26;19.10;81.40
37478;DHT22;23334;54.316;10.182;2022-09-19T12:32:05;19.10;81.60
37478;DHT22;23334;54.316;10.182;2022-09-19T12:34:41;19.00;82.90
37478;DHT22;23334;54.316;10.182;2022-09-19T12:37:22;18.60;79.40
37478;DHT22;23334;54.316;10.182;2022-09-19T12:40:19;18.60;80.50
37478;DHT22;23334;54.316;10.182;2022-09-19T12:45:58;18.10;82.00
37478;DHT22;23334;54.316;10.182;2022-09-19T12:48:35;17.60;81.50
37478;DHT22;23334;54.316;10.182;2022-09-19T12:51:06;17.50;83.00
37478;DHT22;23334;54.316;10.182;2022-09-19T12:53:43;17.10;86.30
37478;DHT22;23334;54.316;10.182;2022-09-19T12:56:29;17.10;89.10
37478;DHT22;23334;54.316;10.182;2022-09-19T12:59:04;16.80;90.60
37478;DHT22;23334;54.316;10.182;2022-09-19T13:01:39;16.80;90.60
37478;DHT22;23334;54.316;10.182;2022-09-19T13:06:43;16.70;92.20
37478;DHT22;23334;54.316;10.182;2022-09-19T13:09:16;16.60;92.40
37478;DHT22;23334;54.316;10.182;2022-09-19T13:12:10;16.60;95.60
37478;DHT22;23334;54.316;10.182;2022-09-19T13:14:46;16.50;96.40
37478;DHT22;23334;54.316;10.182;2022-09-19T13:17:14;16.50;97.40
37478;DHT22;23334;54.316;10.182;2022-09-19T13:19:59;16.50;97.60
37478;DHT22;23334;54.316;10.182;2022-09-19T13:22:48;16.50;98.90
37478;DHT22;23334;54.316;10.182;2022-09-19T13:25:33;16.60;99.20
37478;DHT22;23334;54.316;10.182;2022-09-19T13:30:50;16.60;99.90
37478;DHT22;23334;54.316;10.182;2022-09-19T13:33:25;16.60;99.90
37478;DHT22;23334;54.316;10.182;2022-09-19T13:35:53;16.70;99.90
37478;DHT22;23334;54.316;10.182;2022-09-19T13:38:39;16.70;99.90
37478;DHT22;23334;54.316;10.182;2022-09-19T13:44:12;16.60;99.90
37478;DHT22;23334;54.316;10.182;2022-09-19T13:46:54;16.50;99.90
37478;DHT22;23334;54.316;10.182;2022-09-19T13:49:30;16.40;99.90
37478;DHT22;23334;54.316;10.182;2022-09-19T13:52:01;16.20;99.90
37478;DHT22;23334;54.316;10.182;2022-09-19T13:54:33;16.20;99.90
37478;DHT22;23334;54.316;10.182;2022-09-19T13:57:06;16.00;99.90
37478;DHT22;23334;54.316;10.182;2022-09-19T13:59:39;15.90;99.90
37478;DHT22;23334;54.316;10.182;2022-09-19T14:05:01;15.50;99.90
37478;DHT22;23334;54.316;10.182;2022-09-19T14:07:41;15.30;99.90
37478;DHT22;23334;54.316;10.182;2022-09-19T14:15:44;14.90;99.90
37478;DHT22;23334;54.316;10.182;2022-09-19T14:23:10;14.70;99.90
37478;DHT22;23334;54.316;10.182;2022-09-19T14:25:37;14.50;99.90
37478;DHT22;23334;54.316;10.182;2022-09-19T14:28:43;14.50;99.90
37478;DHT22;23334;54.316;10.182;2022-09-19T14:40:13;14.00;99.90
37478;DHT22;23334;54.316;10.182;2022-09-19T14:51:59;14.10;99.90
37478;DHT22;23334;54.316;10.182;2022-09-19T14:54:37;14.20;99.90
37478;DHT22;23334;54.316;10.182;2022-09-19T14:57:11;14.30;99.90
37478;DHT22;23334;54.316;10.182;2022-09-19T14:59:39;14.40;99.90
37478;DHT22;23334;54.316;10.182;2022-09-19T15:02:24;14.60;99.90
37478;DHT22;23334;54.316;10.182;2022-09-19T15:05:13;14.70;99.90
37478;DHT22;23334;54.316;10.182;2022-09-19T15:07:39;14.80;99.90
37478;DHT22;23334;54.316;10.182;2022-09-19T15:10:31;14.80;99.90
37478;DHT22;23334;54.316;10.182;2022-09-19T15:15:43;15.10;99.90
37478;DHT22;23334;54.316;10.182;2022-09-19T15:18:21;15.40;99.90
37478;DHT22;23334;54.316;10.182;2022-09-19T15:20:57;15.50;99.90
37478;DHT22;23334;54.316;10.182;2022-09-19T15:23:27;15.60;99.90
37478;DHT22;23334;54.316;10.182;2022-09-19T15:25:57;15.80;99.90
37478;DHT22;23334;54.316;10.182;2022-09-19T15:28:28;15.80;99.90
37478;DHT22;23334;54.316;10.182;2022-09-19T15:33:27;15.70;99.90
37478;DHT22;23334;54.316;10.182;2022-09-19T15:38:33;15.50;99.90
37478;DHT22;23334;54.316;10.182;2022-09-19T15:41:03;15.40;99.90
37478;DHT22;23334;54.316;10.182;2022-09-19T15:43:29;15.20;99.90
37478;DHT22;23334;54.316;10.182;2022-09-19T15:45:57;14.90;99.90
37478;DHT22;23334;54.316;10.182;2022-09-19T15:48:31;14.80;99.90
37478;DHT22;23334;54.316;10.182;2022-09-19T15:51:03;14.70;99.90
37478;DHT22;23334;54.316;10.182;2022-09-19T15:53:36;14.60;99.90
37478;DHT22;23334;54.316;10.182;2022-09-19T15:56:08;14.60;99.90
37478;DHT22;23334;54.316;10.182;2022-09-19T15:58:55;14.40;99.90
37478;DHT22;23334;54.316;10.182;2022-09-19T16:01:23;14.10;99.90
37478;DHT22;23334;54.316;10.182;2022-09-19T16:04:02;14.00;99.90
37478;DHT22;23334;54.316;10.182;2022-09-19T16:06:35;13.90;99.90
37478;DHT22;23334;54.316;10.182;2022-09-19T16:11:59;13.70;99.90
37478;DHT22;23334;54.316;10.182;2022-09-19T16:14:36;14.00;99.90
37478;DHT22;23334;54.316;10.182;2022-09-19T16:21:59;14.50;99.90
37478;DHT22;23334;54.316;10.182;2022-09-19T16:24:27;14.50;99.90
37478;DHT22;23334;54.316;10.182;2022-09-19T16:26:57;14.70;99.90
37478;DHT22;23334;54.316;10.182;2022-09-19T16:29:26;14.70;99.90
37478;DHT22;23334;54.316;10.182;2022-09-19T16:31:54;14.70;99.90
37478;DHT22;23334;54.316;10.182;2022-09-19T16:34:32;14.60;99.90
37478;DHT22;23334;54.316;10.182;2022-09-19T16:39:40;14.50;99.90
37478;DHT22;23334;54.316;10.182;2022-09-19T16:47:21;14.00;99.90
37478;DHT22;23334;54.316;10.182;2022-09-19T16:49:48;13.90;99.90
37478;DHT22;23334;54.316;10.182;2022-09-19T16:54:51;13.80;99.90
37478;DHT22;23334;54.316;10.182;2022-09-19T16:57:18;13.60;99.90
37478;DHT22;23334;54.316;10.182;2022-09-19T16:59:48;13.60;99.90
37478;DHT22;23334;54.316;10.182;2022-09-19T17:02:23;13.40;99.90
37478;DHT22;23334;54.316;10.182;2022-09-19T17:04:50;13.40;99.90
37478;DHT22;23334;54.316;10.182;2022-09-19T17:17:02;13.00;99.90
37478;DHT22;23334;54.316;10.182;2022-09-19T17:24:20;12.60;99.90
37478;DHT22;23334;54.316;10.182;2022-09-19T17:31:38;12.50;99.90
37478;DHT22;23334;54.316;10.182;2022-09-19T17:34:04;12.40;99.90
37478;DHT22;23334;54.316;10.182;2022-09-19T17:36:32;12.40;99.90
37478;DHT22;23334;54.316;10.182;2022-09-19T17:38:57;12.50;99.90
37478;DHT22;23334;54.316;10.182;2022-09-19T17:41:23;12.40;99.90
37478;DHT22;23334;54.316;10.182;2022-09-19T17:46:14;12.30;99.90
37478;DHT22;23334;54.316;10.182;2022-09-19T17:56:26;12.20;99.90
37478;DHT22;23334;54.316;10.182;2022-09-19T17:58:57;12.20;99.90
37478;DHT22;23334;54.316;10.182;2022-09-19T18:01:25;12.10;99.90
37478;DHT22;23334;54.316;10.182;2022-09-19T18:04:13;12.10;99.90
37478;DHT22;23334;54.316;10.182;2022-09-19T18:06:39;12.00;99.90
37478;DHT22;23334;54.316;10.182;2022-09-19T18:09:07;12.00;99.90
37478;DHT22;23334;54.316;10.182;2022-09-19T18:14:02;11.80;99.90
37478;DHT22;23334;54.316;10.182;2022-09-19T18:16:30;11.70;99.90
37478;DHT22;23334;54.316;10.182;2022-09-19T18:18:56;11.70;99.90
37478;DHT22;23334;54.316;10.182;2022-09-19T18:26:17;11.50;99.90
37478;DHT22;23334;54.316;10.182;2022-09-19T18:28:44;11.50;99.90
37478;DHT22;23334;54.316;10.182;2022-09-19T18:31:11;11.40;99.90
37478;DHT22;23334;54.316;10.182;2022-09-19T18:33:40;11.40;99.90
37478;DHT22;23334;54.316;10.182;2022-09-19T18:36:18;11.40;99.90
37478;DHT22;23334;54.316;10.182;2022-09-19T18:38:45;11.40;99.90
37478;DHT22;23334;54.316;10.182;2022-09-19T18:43:41;11.30;99.90
37478;DHT22;23334;54.316;10.182;2022-09-19T18:46:13;11.20;99.90
37478;DHT22;23334;54.316;10.182;2022-09-19T18:48:42;11.40;99.90
37478;DHT22;23334;54.316;10.182;2022-09-19T18:51:13;11.40;99.90
37478;DHT22;23334;54.316;10.182;2022-09-19T18:53:39;11.30;99.90
37478;DHT22;23334;54.316;10.182;2022-09-19T18:56:06;11.50;99.90
37478;DHT22;23334;54.316;10.182;2022-09-19T19:01:05;11.60;99.90
37478;DHT22;23334;54.316;10.182;2022-09-19T19:03:33;11.60;99.90
37478;DHT22;23334;54.316;10.182;2022-09-19T19:06:02;11.50;99.90
37478;DHT22;23334;54.316;10.182;2022-09-19T19:08:28;11.60;99.90
37478;DHT22;23334;54.316;10.182;2022-09-19T19:23:12;11.30;99.90
37478;DHT22;23334;54.316;10.182;2022-09-19T19:25:39;11.10;99.90
37478;DHT22;23334;54.316;10.182;2022-09-19T19:30:30;10.90;99.90
37478;DHT22;23334;54.316;10.182;2022-09-19T19:35:22;10.60;99.90
37478;DHT22;23334;54.316;10.182;2022-09-19T19:40:13;10.30;99.90
37478;DHT22;23334;54.316;10.182;2022-09-19T19:42:39;10.20;99.90
37478;DHT22;23334;54.316;10.182;2022-09-19T19:45:05;10.10;99.90
37478;DHT22;23334;54.316;10.182;2022-09-19T19:47:30;9.90;99.90
37478;DHT22;23334;54.316;10.182;2022-09-19T19:49:56;9.80;99.90
37478;DHT22;23334;54.316;10.182;2022-09-19T19:54:47;9.80;99.90
37478;DHT22;23334;54.316;10.182;2022-09-19T20:11:51;9.20;99.90
37478;DHT22;23334;54.316;10.182;2022-09-19T20:16:45;9.10;99.90
37478;DHT22;23334;54.316;10.182;2022-09-19T20:21:41;9.10;99.90
37478;DHT22;23334;54.316;10.182;2022-09-19T20:24:15;9.00;99.90
37478;DHT22;23334;54.316;10.182;2022-09-19T20:29:12;9.20;99.90
37478;DHT22;23334;54.316;10.182;2022-09-19T20:34:06;9.20;99.90
37478;DHT22;23334;54.316;10.182;2022-09-19T20:36:38;9.20;99.90
37478;DHT22;23334;54.316;10.182;2022-09-19T20:44:02;9.30;99.90
37478;DHT22;23334;54.316;10.182;2022-09-19T20:46:28;9.30;99.90
37478;DHT22;23334;54.316;10.182;2022-09-19T20:48:57;9.30;99.90
37478;DHT22;23334;54.316;10.182;2022-09-19T20:53:50;9.20;99.90
37478;DHT22;23334;54.316;10.182;2022-09-19T20:56:25;9.20;99.90
37478;DHT22;23334;54.316;10.182;2022-09-19T20:58:53;9.20;99.90
37478;DHT22;23334;54.316;10.182;2022-09-19T21:03:45;9.20;99.90
37478;DHT22;23334;54.316;10.182;2022-09-19T21:08:38;9.10;99.90
37478;DHT22;23334;54.316;10.182;2022-09-19T21:11:06;9.10;99.90
37478;DHT22;23334;54.316;10.182;2022-09-19T21:13:34;9.00;99.90
37478;DHT22;23334;54.316;10.182;2022-09-19T21:16:05;9.00;99.90
37478;DHT22;23334;54.316;10.182;2022-09-19T21:20:59;9.10;99.90
37478;DHT22;23334;54.316;10.182;2022-09-19T21:26:01;9.00;99.90
37478;DHT22;23334;54.316;10.182;2022-09-19T21:28:31;9.00;99.90
37478;DHT22;23334;54.316;10.182;2022-09-19T21:30:58;9.00;99.90
37478;DHT22;23334;54.316;10.182;2022-09-19T21:33:24;9.00;99.90
37478;DHT22;23334;54.316;10.182;2022-09-19T21:47:59;8.70;99.90
37478;DHT22;23334;54.316;10.182;2022-09-19T21:52:52;8.70;99.90
37478;DHT22;23334;54.316;10.182;2022-09-19T21:55:17;8.60;99.90
37478;DHT22;23334;54.316;10.182;2022-09-19T22:00:11;8.60;99.90
37478;DHT22;23334;54.316;10.182;2022-09-19T22:05:03;8.60;99.90
37478;DHT22;23334;54.316;10.182;2022-09-19T22:26:55;8.50;99.90
37478;DHT22;23334;54.316;10.182;2022-09-19T22:31:47;8.50;99.90
37478;DHT22;23334;54.316;10.182;2022-09-19T22:39:04;8.50;99.90
37478;DHT22;23334;54.316;10.182;2022-09-19T22:43:57;8.50;99.90
37478;DHT22;23334;54.316;10.182;2022-09-19T22:46:25;8.50;99.90
37478;DHT22;23334;54.316;10.182;2022-09-19T22:51:20;8.50;99.90
37478;DHT22;23334;54.316;10.182;2022-09-19T23:01:07;8.60;99.90
37478;DHT22;23334;54.316;10.182;2022-09-19T23:06:03;8.70;99.90
37478;DHT22;23334;54.316;10.182;2022-09-19T23:10:59;8.60;99.90
37478;DHT22;23334;54.316;10.182;2022-09-19T23:13:25;8.60;99.90
37478;DHT22;23334;54.316;10.182;2022-09-19T23:16:09;8.60;99.90
37478;DHT22;23334;54.316;10.182;2022-09-19T23:18:35;8.50;99.90
37478;DHT22;23334;54.316;10.182;2022-09-19T23:25:52;8.50;99.90
37478;DHT22;23334;54.316;10.182;2022-09-19T23:40:27;8.30;99.90
